Owensboro Daviess County Airport
KOWB : now visible

Airfield :











YOU CAN JOIN US ON...

 
LOGIN :

Register | Disclaimer

   EN    FR    IT 

 









Legend :    VFR   Marginal VFR   IFR   Intensive IFR   Very Intensive IFR
Visi :
Ceiling :
>= 8 km
>= 3000ft
5 to 8 km
1000 to 3000 ft
1500m to 5 km
500 to 1000 ft
800 to 1500m
200 to 500 ft
< 800m
< 200 ft
Symbols :   Thunderstorms  Fog  Heavy snow  Heavy precipitations  Wind > 20 kt






- Airport Elevation : 407 ft
- IATA code : OWB


KOWB - Owensboro Daviess County

CURRENT METAR :
  • 230056Z 05005KT 10SM CLR 06/03 A3008 RMK AO2 SLP189 T00560028

EXPIRED METARs :
  • 222356Z 04004KT 10SM CLR 06/03 A3009 RMK AO2 SLP193 T00610028 10078 20061 55002
  • 222256Z 02004KT 10SM SCT025 07/03 A3009 RMK AO2 SLP191 T00670033

TAF KOWB
Valid from the 23 at 00:00 until the 24 at 00:00 UTC


222323Z 2300/2324 04007KT P6SM SCT025 BKN060
TEMPO 2303/2307 OVC025
FM230700 06006KT P6SM OVC030
FM231000 03005KT P6SM VCSH OVC018
FM231200 02006KT 4SM -SHRA OVC008
FM231600 34007KT 5SM -SHRA OVC004
FM232000 31009KT P6SM OVC009



MET'MAP, your aeronautical weather chart ! - Copyright ORBIFLY December 2007 - Disclaimer

ORBIFLY MET'MAP TEAM :

Programming & Development : Alexandra Zaïnal
Concept & Development : Baudouin d'Aumeries
Co-Development & Prog : Marc-Olivier Méhu
Technical & hardware support : Manuel Goepfert

Contact : metmap@orbifly.com




SOURCES & CREDITS :

   NOAA       Earth
Advisory